sensor_id;sensor_type;location;lat;lon;timestamp;temperature;humidity
17202;DHT22;8717;53.588;10.176;2022-10-04T00:00:49;10.00;99.90
17202;DHT22;8717;53.588;10.176;2022-10-04T00:03:21;10.00;99.90
17202;DHT22;8717;53.588;10.176;2022-10-04T00:05:52;9.90;99.90
17202;DHT22;8717;53.588;10.176;2022-10-04T00:08:25;9.90;99.90
17202;DHT22;8717;53.588;10.176;2022-10-04T00:11:05;9.90;99.90
17202;DHT22;8717;53.588;10.176;2022-10-04T00:13:35;9.90;99.90
17202;DHT22;8717;53.588;10.176;2022-10-04T00:16:04;9.90;99.90
17202;DHT22;8717;53.588;10.176;2022-10-04T00:18:37;9.80;99.90
17202;DHT22;8717;53.588;10.176;2022-10-04T00:21:07;9.80;99.90
17202;DHT22;8717;53.588;10.176;2022-10-04T00:23:45;9.80;99.90
17202;DHT22;8717;53.588;10.176;2022-10-04T00:29:31;9.70;99.90
17202;DHT22;8717;53.588;10.176;2022-10-04T00:32:24;9.60;99.90
17202;DHT22;8717;53.588;10.176;2022-10-04T00:34:52;9.50;99.90
17202;DHT22;8717;53.588;10.176;2022-10-04T00:37:21;9.50;99.90
17202;DHT22;8717;53.588;10.176;2022-10-04T00:39:58;9.40;99.90
17202;DHT22;8717;53.588;10.176;2022-10-04T00:42:43;9.40;99.90
17202;DHT22;8717;53.588;10.176;2022-10-04T00:45:15;9.30;99.90
17202;DHT22;8717;53.588;10.176;2022-10-04T00:48:20;9.20;99.90
17202;DHT22;8717;53.588;10.176;2022-10-04T00:50:54;9.20;99.90
17202;DHT22;8717;53.588;10.176;2022-10-04T00:53:50;9.20;99.90
17202;DHT22;8717;53.588;10.176;2022-10-04T00:56:26;9.10;99.90
17202;DHT22;8717;53.588;10.176;2022-10-04T00:59:21;9.00;99.90
17202;DHT22;8717;53.588;10.176;2022-10-04T01:01:55;9.00;99.90
17202;DHT22;8717;53.588;10.176;2022-10-04T01:04:27;9.00;99.90
17202;DHT22;8717;53.588;10.176;2022-10-04T01:06:57;8.90;99.90
17202;DHT22;8717;53.588;10.176;2022-10-04T01:09:27;8.90;99.90
17202;DHT22;8717;53.588;10.176;2022-10-04T01:12:00;8.90;99.90
17202;DHT22;8717;53.588;10.176;2022-10-04T01:14:38;8.80;99.90
17202;DHT22;8717;53.588;10.176;2022-10-04T01:17:07;8.80;99.90
17202;DHT22;8717;53.588;10.176;2022-10-04T01:19:37;8.80;99.90
17202;DHT22;8717;53.588;10.176;2022-10-04T01:22:10;8.70;99.90
17202;DHT22;8717;53.588;10.176;2022-10-04T01:24:40;8.80;99.90
17202;DHT22;8717;53.588;10.176;2022-10-04T01:27:35;8.70;99.90
17202;DHT22;8717;53.588;10.176;2022-10-04T01:30:05;8.70;99.90
17202;DHT22;8717;53.588;10.176;2022-10-04T01:32:34;8.80;99.90
17202;DHT22;8717;53.588;10.176;2022-10-04T01:35:03;8.70;99.90
17202;DHT22;8717;53.588;10.176;2022-10-04T01:37:30;8.70;99.90
17202;DHT22;8717;53.588;10.176;2022-10-04T01:39:58;8.70;99.90
17202;DHT22;8717;53.588;10.176;2022-10-04T01:42:28;8.70;99.90
17202;DHT22;8717;53.588;10.176;2022-10-04T01:45:00;8.70;99.90
17202;DHT22;8717;53.588;10.176;2022-10-04T01:47:34;8.80;99.90
17202;DHT22;8717;53.588;10.176;2022-10-04T01:50:08;8.70;99.90
17202;DHT22;8717;53.588;10.176;2022-10-04T01:52:40;8.80;99.90
17202;DHT22;8717;53.588;10.176;2022-10-04T01:55:12;8.80;99.90
17202;DHT22;8717;53.588;10.176;2022-10-04T01:57:43;8.80;99.90
17202;DHT22;8717;53.588;10.176;2022-10-04T02:00:13;8.80;99.90
17202;DHT22;8717;53.588;10.176;2022-10-04T02:02:44;8.80;99.90
17202;DHT22;8717;53.588;10.176;2022-10-04T02:05:17;8.80;99.90
17202;DHT22;8717;53.588;10.176;2022-10-04T02:07:45;8.80;99.90
17202;DHT22;8717;53.588;10.176;2022-10-04T02:10:19;8.80;99.90
17202;DHT22;8717;53.588;10.176;2022-10-04T02:12:48;8.80;99.90
17202;DHT22;8717;53.588;10.176;2022-10-04T02:15:18;8.80;99.90
17202;DHT22;8717;53.588;10.176;2022-10-04T02:17:46;8.70;99.90
17202;DHT22;8717;53.588;10.176;2022-10-04T02:20:15;8.70;99.90
17202;DHT22;8717;53.588;10.176;2022-10-04T02:22:45;8.70;99.90
17202;DHT22;8717;53.588;10.176;2022-10-04T02:25:13;8.70;99.90
17202;DHT22;8717;53.588;10.176;2022-10-04T02:27:42;8.70;99.90
17202;DHT22;8717;53.588;10.176;2022-10-04T02:30:11;8.70;99.90
17202;DHT22;8717;53.588;10.176;2022-10-04T02:32:40;8.70;99.90
17202;DHT22;8717;53.588;10.176;2022-10-04T02:35:27;8.70;99.90
17202;DHT22;8717;53.588;10.176;2022-10-04T02:38:02;8.70;99.90
17202;DHT22;8717;53.588;10.176;2022-10-04T02:40:32;8.70;99.90
17202;DHT22;8717;53.588;10.176;2022-10-04T02:43:09;8.70;99.90
17202;DHT22;8717;53.588;10.176;2022-10-04T02:45:42;8.80;99.90
17202;DHT22;8717;53.588;10.176;2022-10-04T02:48:19;8.80;99.90
17202;DHT22;8717;53.588;10.176;2022-10-04T02:50:50;8.80;99.90
17202;DHT22;8717;53.588;10.176;2022-10-04T02:53:24;8.90;99.90
17202;DHT22;8717;53.588;10.176;2022-10-04T02:55:53;8.90;99.90
17202;DHT22;8717;53.588;10.176;2022-10-04T02:58:24;8.90;99.90
17202;DHT22;8717;53.588;10.176;2022-10-04T03:00:55;8.90;99.90
17202;DHT22;8717;53.588;10.176;2022-10-04T03:03:25;8.90;99.90
17202;DHT22;8717;53.588;10.176;2022-10-04T03:05:56;8.90;99.90
17202;DHT22;8717;53.588;10.176;2022-10-04T03:08:25;9.00;99.90
17202;DHT22;8717;53.588;10.176;2022-10-04T03:10:53;9.00;99.90
17202;DHT22;8717;53.588;10.176;2022-10-04T03:13:22;9.00;99.90
17202;DHT22;8717;53.588;10.176;2022-10-04T03:15:49;9.00;99.90
17202;DHT22;8717;53.588;10.176;2022-10-04T03:18:17;9.10;99.90
17202;DHT22;8717;53.588;10.176;2022-10-04T03:20:45;9.00;99.90
17202;DHT22;8717;53.588;10.176;2022-10-04T03:23:15;9.10;99.90
17202;DHT22;8717;53.588;10.176;2022-10-04T03:25:48;9.10;99.90
17202;DHT22;8717;53.588;10.176;2022-10-04T03:28:16;9.10;99.90
17202;DHT22;8717;53.588;10.176;2022-10-04T03:30:47;9.10;99.90
17202;DHT22;8717;53.588;10.176;2022-10-04T03:33:18;9.10;99.90
17202;DHT22;8717;53.588;10.176;2022-10-04T03:35:48;9.10;99.90
17202;DHT22;8717;53.588;10.176;2022-10-04T03:38:16;9.10;99.90
17202;DHT22;8717;53.588;10.176;2022-10-04T03:40:49;9.10;99.90
17202;DHT22;8717;53.588;10.176;2022-10-04T03:43:19;9.20;99.90
17202;DHT22;8717;53.588;10.176;2022-10-04T03:45:49;9.20;99.90
17202;DHT22;8717;53.588;10.176;2022-10-04T03:48:24;9.20;99.90
17202;DHT22;8717;53.588;10.176;2022-10-04T03:50:52;9.20;99.90
17202;DHT22;8717;53.588;10.176;2022-10-04T03:53:26;9.20;99.90
17202;DHT22;8717;53.588;10.176;2022-10-04T03:55:53;9.20;99.90
17202;DHT22;8717;53.588;10.176;2022-10-04T03:58:21;9.20;99.90
17202;DHT22;8717;53.588;10.176;2022-10-04T04:01:02;9.20;99.90
17202;DHT22;8717;53.588;10.176;2022-10-04T04:03:36;9.20;99.90
17202;DHT22;8717;53.588;10.176;2022-10-04T04:06:12;9.20;99.90
17202;DHT22;8717;53.588;10.176;2022-10-04T04:08:41;9.10;99.90
17202;DHT22;8717;53.588;10.176;2022-10-04T04:11:14;9.20;99.90
17202;DHT22;8717;53.588;10.176;2022-10-04T04:13:48;9.10;99.90
17202;DHT22;8717;53.588;10.176;2022-10-04T04:16:19;9.10;99.90
17202;DHT22;8717;53.588;10.176;2022-10-04T04:18:47;9.10;99.90
17202;DHT22;8717;53.588;10.176;2022-10-04T04:21:17;9.10;99.90
17202;DHT22;8717;53.588;10.176;2022-10-04T04:23:47;9.10;99.90
17202;DHT22;8717;53.588;10.176;2022-10-04T04:26:21;9.10;99.90
17202;DHT22;8717;53.588;10.176;2022-10-04T04:28:50;9.00;99.90
17202;DHT22;8717;53.588;10.176;2022-10-04T04:31:21;9.00;99.90
17202;DHT22;8717;53.588;10.176;2022-10-04T04:33:54;9.00;99.90
17202;DHT22;8717;53.588;10.176;2022-10-04T04:36:26;9.00;99.90
17202;DHT22;8717;53.588;10.176;2022-10-04T04:38:53;9.00;99.90
17202;DHT22;8717;53.588;10.176;2022-10-04T04:41:38;9.00;99.90
17202;DHT22;8717;53.588;10.176;2022-10-04T04:44:15;9.00;99.90
17202;DHT22;8717;53.588;10.176;2022-10-04T04:46:44;8.90;99.90
17202;DHT22;8717;53.588;10.176;2022-10-04T04:49:12;8.90;99.90
17202;DHT22;8717;53.588;10.176;2022-10-04T04:51:40;8.90;99.90
17202;DHT22;8717;53.588;10.176;2022-10-04T04:54:11;8.90;99.90
17202;DHT22;8717;53.588;10.176;2022-10-04T04:56:41;9.00;99.90
17202;DHT22;8717;53.588;10.176;2022-10-04T04:59:10;8.90;99.90
17202;DHT22;8717;53.588;10.176;2022-10-04T05:01:42;8.90;99.90
17202;DHT22;8717;53.588;10.176;2022-10-04T05:04:19;8.90;99.90
17202;DHT22;8717;53.588;10.176;2022-10-04T05:06:57;8.90;99.90
17202;DHT22;8717;53.588;10.176;2022-10-04T05:09:29;8.90;99.90
17202;DHT22;8717;53.588;10.176;2022-10-04T05:12:01;8.90;99.90
17202;DHT22;8717;53.588;10.176;2022-10-04T05:14:33;8.90;99.90
17202;DHT22;8717;53.588;10.176;2022-10-04T05:17:00;8.90;99.90
17202;DHT22;8717;53.588;10.176;2022-10-04T05:19:30;8.90;99.90
17202;DHT22;8717;53.588;10.176;2022-10-04T05:21:59;9.00;99.90
17202;DHT22;8717;53.588;10.176;2022-10-04T05:24:28;9.00;99.90
17202;DHT22;8717;53.588;10.176;2022-10-04T05:26:57;9.00;99.90
17202;DHT22;8717;53.588;10.176;2022-10-04T05:29:27;9.00;99.90
17202;DHT22;8717;53.588;10.176;2022-10-04T05:32:02;9.00;99.90
17202;DHT22;8717;53.588;10.176;2022-10-04T05:34:38;9.00;99.90
17202;DHT22;8717;53.588;10.176;2022-10-04T05:37:27;9.00;99.90
17202;DHT22;8717;53.588;10.176;2022-10-04T05:40:03;9.00;99.90
17202;DHT22;8717;53.588;10.176;2022-10-04T05:42:35;9.00;99.90
17202;DHT22;8717;53.588;10.176;2022-10-04T05:45:13;9.00;99.90
17202;DHT22;8717;53.588;10.176;2022-10-04T05:47:42;9.00;99.90
17202;DHT22;8717;53.588;10.176;2022-10-04T05:50:15;9.10;99.90
17202;DHT22;8717;53.588;10.176;2022-10-04T05:52:42;9.00;99.90
17202;DHT22;8717;53.588;10.176;2022-10-04T05:55:20;9.00;99.90
17202;DHT22;8717;53.588;10.176;2022-10-04T05:58:12;9.00;99.90
17202;DHT22;8717;53.588;10.176;2022-10-04T06:00:52;9.00;99.90
17202;DHT22;8717;53.588;10.176;2022-10-04T06:03:28;9.10;99.90
17202;DHT22;8717;53.588;10.176;2022-10-04T06:06:00;9.10;99.90
17202;DHT22;8717;53.588;10.176;2022-10-04T06:08:42;9.10;99.90
17202;DHT22;8717;53.588;10.176;2022-10-04T06:11:30;9.10;99.90
17202;DHT22;8717;53.588;10.176;2022-10-04T06:14:15;9.10;99.90
17202;DHT22;8717;53.588;10.176;2022-10-04T06:16:57;9.20;99.90
17202;DHT22;8717;53.588;10.176;2022-10-04T06:19:55;9.20;99.90
17202;DHT22;8717;53.588;10.176;2022-10-04T06:22:27;9.20;99.90
17202;DHT22;8717;53.588;10.176;2022-10-04T06:24:56;9.20;99.90
17202;DHT22;8717;53.588;10.176;2022-10-04T06:27:29;9.20;99.90
17202;DHT22;8717;53.588;10.176;2022-10-04T06:29:59;9.20;99.90
17202;DHT22;8717;53.588;10.176;2022-10-04T06:32:56;9.20;99.90
17202;DHT22;8717;53.588;10.176;2022-10-04T06:35:52;9.20;99.90
17202;DHT22;8717;53.588;10.176;2022-10-04T06:38:46;9.20;99.90
17202;DHT22;8717;53.588;10.176;2022-10-04T06:41:38;9.20;99.90
17202;DHT22;8717;53.588;10.176;2022-10-04T06:44:22;9.10;99.90
17202;DHT22;8717;53.588;10.176;2022-10-04T06:47:03;9.10;99.90
17202;DHT22;8717;53.588;10.176;2022-10-04T06:49:38;9.10;99.90
17202;DHT22;8717;53.588;10.176;2022-10-04T06:52:35;9.00;99.90
17202;DHT22;8717;53.588;10.176;2022-10-04T06:58:51;9.10;99.90
17202;DHT22;8717;53.588;10.176;2022-10-04T07:01:25;9.10;99.90
17202;DHT22;8717;53.588;10.176;2022-10-04T07:03:56;9.20;99.90
17202;DHT22;8717;53.588;10.176;2022-10-04T07:06:32;9.20;99.90
17202;DHT22;8717;53.588;10.176;2022-10-04T07:09:05;9.30;99.90
17202;DHT22;8717;53.588;10.176;2022-10-04T07:11:45;9.40;99.90
17202;DHT22;8717;53.588;10.176;2022-10-04T07:14:17;9.50;99.90
17202;DHT22;8717;53.588;10.176;2022-10-04T07:16:47;9.60;99.90
17202;DHT22;8717;53.588;10.176;2022-10-04T07:19:29;9.70;99.90
17202;DHT22;8717;53.588;10.176;2022-10-04T07:22:03;9.90;99.90
17202;DHT22;8717;53.588;10.176;2022-10-04T07:24:47;10.10;99.90
17202;DHT22;8717;53.588;10.176;2022-10-04T07:27:21;10.20;99.90
17202;DHT22;8717;53.588;10.176;2022-10-04T07:29:53;10.40;99.90
17202;DHT22;8717;53.588;10.176;2022-10-04T07:32:21;10.50;99.90
17202;DHT22;8717;53.588;10.176;2022-10-04T07:34:52;10.60;99.90
17202;DHT22;8717;53.588;10.176;2022-10-04T07:37:20;10.70;99.90
17202;DHT22;8717;53.588;10.176;2022-10-04T07:39:52;10.80;99.90
17202;DHT22;8717;53.588;10.176;2022-10-04T07:42:26;10.90;99.90
17202;DHT22;8717;53.588;10.176;2022-10-04T07:45:03;10.90;99.90
17202;DHT22;8717;53.588;10.176;2022-10-04T07:47:35;11.00;99.90
17202;DHT22;8717;53.588;10.176;2022-10-04T07:50:18;11.00;99.90
17202;DHT22;8717;53.588;10.176;2022-10-04T07:52:49;11.10;99.90
17202;DHT22;8717;53.588;10.176;2022-10-04T07:55:23;11.10;99.90
17202;DHT22;8717;53.588;10.176;2022-10-04T07:58:02;11.20;99.90
17202;DHT22;8717;53.588;10.176;2022-10-04T08:00:38;11.20;99.90
17202;DHT22;8717;53.588;10.176;2022-10-04T08:03:19;11.30;99.90
17202;DHT22;8717;53.588;10.176;2022-10-04T08:05:51;11.30;99.90
17202;DHT22;8717;53.588;10.176;2022-10-04T08:08:35;11.30;99.90
17202;DHT22;8717;53.588;10.176;2022-10-04T08:11:15;11.40;99.90
17202;DHT22;8717;53.588;10.176;2022-10-04T08:13:51;11.40;99.90
17202;DHT22;8717;53.588;10.176;2022-10-04T08:16:31;11.50;99.90
17202;DHT22;8717;53.588;10.176;2022-10-04T08:19:09;11.60;99.90
17202;DHT22;8717;53.588;10.176;2022-10-04T08:21:43;11.60;99.90
17202;DHT22;8717;53.588;10.176;2022-10-04T08:24:20;11.70;99.90
17202;DHT22;8717;53.588;10.176;2022-10-04T08:27:03;11.70;99.90
17202;DHT22;8717;53.588;10.176;2022-10-04T08:29:50;11.80;99.90
17202;DHT22;8717;53.588;10.176;2022-10-04T08:32:30;11.80;99.90
17202;DHT22;8717;53.588;10.176;2022-10-04T08:35:28;11.90;99.90
17202;DHT22;8717;53.588;10.176;2022-10-04T08:38:12;12.00;99.90
17202;DHT22;8717;53.588;10.176;2022-10-04T08:41:10;12.20;99.90
17202;DHT22;8717;53.588;10.176;2022-10-04T08:47:08;12.50;99.90
17202;DHT22;8717;53.588;10.176;2022-10-04T08:53:14;12.90;99.90
17202;DHT22;8717;53.588;10.176;2022-10-04T08:55:57;13.20;99.90
17202;DHT22;8717;53.588;10.176;2022-10-04T08:58:49;13.40;99.90
17202;DHT22;8717;53.588;10.176;2022-10-04T09:01:30;13.50;99.90
17202;DHT22;8717;53.588;10.176;2022-10-04T09:04:48;13.70;99.90
17202;DHT22;8717;53.588;10.176;2022-10-04T09:07:50;13.80;99.90
17202;DHT22;8717;53.588;10.176;2022-10-04T09:10:55;14.00;99.90
17202;DHT22;8717;53.588;10.176;2022-10-04T09:13:35;14.10;99.90
17202;DHT22;8717;53.588;10.176;2022-10-04T09:16:14;14.10;99.90
17202;DHT22;8717;53.588;10.176;2022-10-04T09:18:49;14.20;99.90
17202;DHT22;8717;53.588;10.176;2022-10-04T09:21:30;14.20;99.90
17202;DHT22;8717;53.588;10.176;2022-10-04T09:24:28;14.20;99.90
17202;DHT22;8717;53.588;10.176;2022-10-04T09:27:10;14.30;99.90
17202;DHT22;8717;53.588;10.176;2022-10-04T09:29:53;14.30;99.90
17202;DHT22;8717;53.588;10.176;2022-10-04T09:32:40;14.30;99.90
17202;DHT22;8717;53.588;10.176;2022-10-04T09:35:28;14.30;99.90
17202;DHT22;8717;53.588;10.176;2022-10-04T09:41:33;14.40;99.90
17202;DHT22;8717;53.588;10.176;2022-10-04T09:44:32;14.40;99.90
17202;DHT22;8717;53.588;10.176;2022-10-04T09:47:31;14.50;99.90
17202;DHT22;8717;53.588;10.176;2022-10-04T09:50:28;14.60;99.90
17202;DHT22;8717;53.588;10.176;2022-10-04T09:53:10;14.70;99.90
17202;DHT22;8717;53.588;10.176;2022-10-04T09:55:55;14.80;99.90
17202;DHT22;8717;53.588;10.176;2022-10-04T09:58:41;14.90;99.90
17202;DHT22;8717;53.588;10.176;2022-10-04T10:01:19;15.00;99.90
17202;DHT22;8717;53.588;10.176;2022-10-04T10:07:03;15.10;99.90
17202;DHT22;8717;53.588;10.176;2022-10-04T10:09:40;15.20;99.90
17202;DHT22;8717;53.588;10.176;2022-10-04T10:12:52;15.40;99.90
17202;DHT22;8717;53.588;10.176;2022-10-04T10:15:49;15.50;99.90
17202;DHT22;8717;53.588;10.176;2022-10-04T10:18:32;15.60;99.90
17202;DHT22;8717;53.588;10.176;2022-10-04T10:21:30;15.70;99.90
17202;DHT22;8717;53.588;10.176;2022-10-04T10:24:17;15.80;99.90
17202;DHT22;8717;53.588;10.176;2022-10-04T10:27:01;15.90;99.90
17202;DHT22;8717;53.588;10.176;2022-10-04T10:30:02;16.00;99.90
17202;DHT22;8717;53.588;10.176;2022-10-04T10:33:09;16.00;99.90
17202;DHT22;8717;53.588;10.176;2022-10-04T10:35:49;16.10;99.90
17202;DHT22;8717;53.588;10.176;2022-10-04T10:38:27;16.20;99.90
17202;DHT22;8717;53.588;10.176;2022-10-04T10:41:25;16.40;99.90
17202;DHT22;8717;53.588;10.176;2022-10-04T10:44:26;16.70;99.90
17202;DHT22;8717;53.588;10.176;2022-10-04T10:47:18;17.20;99.90
17202;DHT22;8717;53.588;10.176;2022-10-04T10:50:14;17.70;99.90
17202;DHT22;8717;53.588;10.176;2022-10-04T10:53:15;18.10;99.90
17202;DHT22;8717;53.588;10.176;2022-10-04T10:56:15;18.60;99.90
17202;DHT22;8717;53.588;10.176;2022-10-04T10:59:23;19.00;99.90
17202;DHT22;8717;53.588;10.176;2022-10-04T11:02:16;19.50;99.90
17202;DHT22;8717;53.588;10.176;2022-10-04T11:04:59;19.80;99.90
17202;DHT22;8717;53.588;10.176;2022-10-04T11:07:43;20.10;99.90
17202;DHT22;8717;53.588;10.176;2022-10-04T11:10:52;20.30;99.40
17202;DHT22;8717;53.588;10.176;2022-10-04T11:16:50;20.60;99.90
17202;DHT22;8717;53.588;10.176;2022-10-04T11:19:48;20.70;99.90
17202;DHT22;8717;53.588;10.176;2022-10-04T11:25:43;21.00;99.00
17202;DHT22;8717;53.588;10.176;2022-10-04T11:28:18;21.20;99.40
17202;DHT22;8717;53.588;10.176;2022-10-04T11:31:24;21.40;98.10
17202;DHT22;8717;53.588;10.176;2022-10-04T11:37:06;21.40;97.20
17202;DHT22;8717;53.588;10.176;2022-10-04T11:39:52;21.50;97.90
17202;DHT22;8717;53.588;10.176;2022-10-04T11:42:33;21.50;97.50
17202;DHT22;8717;53.588;10.176;2022-10-04T11:45:20;21.50;97.60
17202;DHT22;8717;53.588;10.176;2022-10-04T11:48:06;21.50;97.40
17202;DHT22;8717;53.588;10.176;2022-10-04T11:50:42;21.50;97.30
17202;DHT22;8717;53.588;10.176;2022-10-04T11:53:43;21.60;97.90
17202;DHT22;8717;53.588;10.176;2022-10-04T11:56:28;21.70;97.00
17202;DHT22;8717;53.588;10.176;2022-10-04T11:59:17;21.70;96.00
17202;DHT22;8717;53.588;10.176;2022-10-04T12:05:16;21.60;96.00
17202;DHT22;8717;53.588;10.176;2022-10-04T12:07:56;21.50;95.80
17202;DHT22;8717;53.588;10.176;2022-10-04T12:10:33;21.40;96.30
17202;DHT22;8717;53.588;10.176;2022-10-04T12:16:30;20.90;95.90
17202;DHT22;8717;53.588;10.176;2022-10-04T12:19:35;20.70;96.00
17202;DHT22;8717;53.588;10.176;2022-10-04T12:22:21;20.50;96.50
17202;DHT22;8717;53.588;10.176;2022-10-04T12:28:36;20.40;96.40
17202;DHT22;8717;53.588;10.176;2022-10-04T12:31:10;20.60;96.50
17202;DHT22;8717;53.588;10.176;2022-10-04T12:33:48;20.60;96.60
17202;DHT22;8717;53.588;10.176;2022-10-04T12:36:47;20.60;96.40
17202;DHT22;8717;53.588;10.176;2022-10-04T12:39:41;20.60;96.20
17202;DHT22;8717;53.588;10.176;2022-10-04T12:42:18;20.80;96.40
17202;DHT22;8717;53.588;10.176;2022-10-04T12:45:18;20.80;95.80
17202;DHT22;8717;53.588;10.176;2022-10-04T12:48:01;21.00;95.80
17202;DHT22;8717;53.588;10.176;2022-10-04T12:50:47;21.10;94.70
17202;DHT22;8717;53.588;10.176;2022-10-04T12:53:26;21.20;94.10
17202;DHT22;8717;53.588;10.176;2022-10-04T12:56:11;21.30;94.80
17202;DHT22;8717;53.588;10.176;2022-10-04T12:59:00;21.30;94.90
17202;DHT22;8717;53.588;10.176;2022-10-04T13:01:39;21.40;94.30
17202;DHT22;8717;53.588;10.176;2022-10-04T13:04:20;21.50;94.70
17202;DHT22;8717;53.588;10.176;2022-10-04T13:07:16;21.50;94.70
17202;DHT22;8717;53.588;10.176;2022-10-04T13:09:50;21.60;94.10
17202;DHT22;8717;53.588;10.176;2022-10-04T13:12:29;21.70;94.50
17202;DHT22;8717;53.588;10.176;2022-10-04T13:15:19;21.70;93.80
17202;DHT22;8717;53.588;10.176;2022-10-04T13:17:54;21.60;93.40
17202;DHT22;8717;53.588;10.176;2022-10-04T13:20:46;21.60;92.90
17202;DHT22;8717;53.588;10.176;2022-10-04T13:23:23;21.50;92.70
17202;DHT22;8717;53.588;10.176;2022-10-04T13:28:59;21.20;92.60
17202;DHT22;8717;53.588;10.176;2022-10-04T13:31:33;21.20;93.00
17202;DHT22;8717;53.588;10.176;2022-10-04T13:34:09;21.10;93.10
17202;DHT22;8717;53.588;10.176;2022-10-04T13:36:52;21.10;92.70
17202;DHT22;8717;53.588;10.176;2022-10-04T13:39:34;21.10;92.60
17202;DHT22;8717;53.588;10.176;2022-10-04T13:45:19;21.10;92.70
17202;DHT22;8717;53.588;10.176;2022-10-04T13:48:03;21.10;93.00
17202;DHT22;8717;53.588;10.176;2022-10-04T13:50:53;21.10;92.90
17202;DHT22;8717;53.588;10.176;2022-10-04T13:53:30;21.10;92.90
17202;DHT22;8717;53.588;10.176;2022-10-04T13:56:39;21.10;93.10
17202;DHT22;8717;53.588;10.176;2022-10-04T13:59:16;21.10;93.00
17202;DHT22;8717;53.588;10.176;2022-10-04T14:08:10;20.90;92.10
17202;DHT22;8717;53.588;10.176;2022-10-04T14:13:58;20.70;92.40
17202;DHT22;8717;53.588;10.176;2022-10-04T14:16:51;20.70;92.70
17202;DHT22;8717;53.588;10.176;2022-10-04T14:19:53;20.60;93.00
17202;DHT22;8717;53.588;10.176;2022-10-04T14:28:59;20.50;92.50
17202;DHT22;8717;53.588;10.176;2022-10-04T14:31:57;20.50;92.50
17202;DHT22;8717;53.588;10.176;2022-10-04T14:34:48;20.40;92.30
17202;DHT22;8717;53.588;10.176;2022-10-04T14:43:57;20.10;92.80
17202;DHT22;8717;53.588;10.176;2022-10-04T14:46:36;20.00;92.80
17202;DHT22;8717;53.588;10.176;2022-10-04T14:49:12;19.90;92.60
17202;DHT22;8717;53.588;10.176;2022-10-04T14:51:54;19.90;93.00
17202;DHT22;8717;53.588;10.176;2022-10-04T14:54:37;19.80;92.80
17202;DHT22;8717;53.588;10.176;2022-10-04T14:57:15;19.80;93.20
17202;DHT22;8717;53.588;10.176;2022-10-04T15:00:16;19.60;93.30
17202;DHT22;8717;53.588;10.176;2022-10-04T15:03:03;19.60;93.40
17202;DHT22;8717;53.588;10.176;2022-10-04T15:06:09;19.50;93.70
17202;DHT22;8717;53.588;10.176;2022-10-04T15:11:45;19.40;93.70
17202;DHT22;8717;53.588;10.176;2022-10-04T15:14:37;19.40;93.90
17202;DHT22;8717;53.588;10.176;2022-10-04T15:17:24;19.30;93.90
17202;DHT22;8717;53.588;10.176;2022-10-04T15:20:05;19.20;93.90
17202;DHT22;8717;53.588;10.176;2022-10-04T15:22:47;19.20;94.00
17202;DHT22;8717;53.588;10.176;2022-10-04T15:25:38;19.10;94.10
17202;DHT22;8717;53.588;10.176;2022-10-04T15:30:45;18.80;94.30
17202;DHT22;8717;53.588;10.176;2022-10-04T15:33:23;18.70;94.60
17202;DHT22;8717;53.588;10.176;2022-10-04T15:36:16;18.50;94.80
17202;DHT22;8717;53.588;10.176;2022-10-04T15:38:52;18.40;94.90
17202;DHT22;8717;53.588;10.176;2022-10-04T15:41:31;18.30;95.20
17202;DHT22;8717;53.588;10.176;2022-10-04T15:47:08;18.00;95.30
17202;DHT22;8717;53.588;10.176;2022-10-04T15:49:49;17.90;95.30
17202;DHT22;8717;53.588;10.176;2022-10-04T15:55:28;17.70;95.50
17202;DHT22;8717;53.588;10.176;2022-10-04T16:00:58;17.40;95.70
17202;DHT22;8717;53.588;10.176;2022-10-04T16:03:40;17.30;96.10
17202;DHT22;8717;53.588;10.176;2022-10-04T16:06:17;17.20;96.30
17202;DHT22;8717;53.588;10.176;2022-10-04T16:09:12;17.10;96.50
17202;DHT22;8717;53.588;10.176;2022-10-04T16:11:58;17.00;96.80
17202;DHT22;8717;53.588;10.176;2022-10-04T16:14:57;16.90;97.20
17202;DHT22;8717;53.588;10.176;2022-10-04T16:17:47;16.70;97.30
17202;DHT22;8717;53.588;10.176;2022-10-04T16:20:33;16.60;97.60
17202;DHT22;8717;53.588;10.176;2022-10-04T16:23:24;16.50;97.60
17202;DHT22;8717;53.588;10.176;2022-10-04T16:25:53;16.40;97.90
17202;DHT22;8717;53.588;10.176;2022-10-04T16:28:42;16.30;97.90
17202;DHT22;8717;53.588;10.176;2022-10-04T16:31:23;16.20;98.30
17202;DHT22;8717;53.588;10.176;2022-10-04T16:33:55;16.10;98.40
17202;DHT22;8717;53.588;10.176;2022-10-04T16:36:27;16.00;98.50
17202;DHT22;8717;53.588;10.176;2022-10-04T16:38:59;15.90;98.60
17202;DHT22;8717;53.588;10.176;2022-10-04T16:41:53;15.80;98.80
17202;DHT22;8717;53.588;10.176;2022-10-04T16:44:31;15.70;99.00
17202;DHT22;8717;53.588;10.176;2022-10-04T16:47:01;15.60;99.20
17202;DHT22;8717;53.588;10.176;2022-10-04T16:49:46;15.50;99.10
17202;DHT22;8717;53.588;10.176;2022-10-04T16:52:31;15.40;99.30
17202;DHT22;8717;53.588;10.176;2022-10-04T16:55:09;15.30;99.50
17202;DHT22;8717;53.588;10.176;2022-10-04T16:57:43;15.30;99.60
17202;DHT22;8717;53.588;10.176;2022-10-04T17:00:32;15.20;99.60
17202;DHT22;8717;53.588;10.176;2022-10-04T17:03:14;15.00;99.90
17202;DHT22;8717;53.588;10.176;2022-10-04T17:05:45;15.00;99.90
17202;DHT22;8717;53.588;10.176;2022-10-04T17:08:45;14.90;99.90
17202;DHT22;8717;53.588;10.176;2022-10-04T17:11:29;14.80;99.90
17202;DHT22;8717;53.588;10.176;2022-10-04T17:14:00;14.70;99.90
17202;DHT22;8717;53.588;10.176;2022-10-04T17:16:35;14.60;99.90
17202;DHT22;8717;53.588;10.176;2022-10-04T17:19:16;14.50;99.90
17202;DHT22;8717;53.588;10.176;2022-10-04T17:21:52;14.40;99.90
17202;DHT22;8717;53.588;10.176;2022-10-04T17:24:27;14.30;99.90
17202;DHT22;8717;53.588;10.176;2022-10-04T17:27:07;14.30;99.90
17202;DHT22;8717;53.588;10.176;2022-10-04T17:29:50;14.20;99.90
17202;DHT22;8717;53.588;10.176;2022-10-04T17:32:24;14.10;99.90
17202;DHT22;8717;53.588;10.176;2022-10-04T17:35:01;14.00;99.90
17202;DHT22;8717;53.588;10.176;2022-10-04T17:37:40;14.00;99.90
17202;DHT22;8717;53.588;10.176;2022-10-04T17:40:32;13.90;99.90
17202;DHT22;8717;53.588;10.176;2022-10-04T17:43:10;13.80;99.90
17202;DHT22;8717;53.588;10.176;2022-10-04T17:45:51;13.80;99.90
17202;DHT22;8717;53.588;10.176;2022-10-04T17:48:24;13.70;99.90
17202;DHT22;8717;53.588;10.176;2022-10-04T17:51:26;13.70;99.90
17202;DHT22;8717;53.588;10.176;2022-10-04T17:54:14;13.60;99.90
17202;DHT22;8717;53.588;10.176;2022-10-04T17:57:14;13.50;99.90
17202;DHT22;8717;53.588;10.176;2022-10-04T17:59:49;13.40;99.90
17202;DHT22;8717;53.588;10.176;2022-10-04T18:02:21;13.30;99.90
17202;DHT22;8717;53.588;10.176;2022-10-04T18:04:52;13.30;99.90
17202;DHT22;8717;53.588;10.176;2022-10-04T18:07:23;13.20;99.90
17202;DHT22;8717;53.588;10.176;2022-10-04T18:09:52;13.20;99.90
17202;DHT22;8717;53.588;10.176;2022-10-04T18:12:26;13.10;99.90
17202;DHT22;8717;53.588;10.176;2022-10-04T18:15:02;13.10;99.90
17202;DHT22;8717;53.588;10.176;2022-10-04T18:17:35;13.00;99.90